sensor_id;sensor_type;location;lat;lon;timestamp;pressure;altitude;pressure_sealevel;temperature;humidity
50672;BME280;46021;55.882;37.654;2023-02-12T00:01:24;98085.66;;;-2.20;84.00
50672;BME280;46021;55.882;37.654;2023-02-12T00:03:54;98082.34;;;-2.33;83.92
50672;BME280;46021;55.882;37.654;2023-02-12T00:06:21;98080.66;;;-2.32;83.40
50672;BME280;46021;55.882;37.654;2023-02-12T00:08:49;98083.22;;;-2.32;83.80
50672;BME280;46021;55.882;37.654;2023-02-12T00:11:18;98097.75;;;-2.47;83.18
50672;BME280;46021;55.882;37.654;2023-02-12T00:13:46;98086.66;;;-2.44;82.52
50672;BME280;46021;55.882;37.654;2023-02-12T00:16:15;98105.41;;;-2.50;83.02
50672;BME280;46021;55.882;37.654;2023-02-12T00:18:43;98107.09;;;-2.52;82.08
50672;BME280;46021;55.882;37.654;2023-02-12T00:21:13;98123.25;;;-2.50;82.78
50672;BME280;46021;55.882;37.654;2023-02-12T00:23:42;98130.06;;;-2.47;82.05
50672;BME280;46021;55.882;37.654;2023-02-12T00:26:11;98123.28;;;-2.59;82.22
50672;BME280;46021;55.882;37.654;2023-02-12T00:28:44;98133.53;;;-2.64;82.40
50672;BME280;46021;55.882;37.654;2023-02-12T00:31:14;98134.41;;;-2.71;81.05
50672;BME280;46021;55.882;37.654;2023-02-12T00:33:41;98152.28;;;-2.79;81.18
50672;BME280;46021;55.882;37.654;2023-02-12T00:36:14;98178.66;;;-2.89;81.43
50672;BME280;46021;55.882;37.654;2023-02-12T00:38:43;98169.34;;;-2.95;82.47
50672;BME280;46021;55.882;37.654;2023-02-12T00:41:11;98174.44;;;-3.05;81.63
50672;BME280;46021;55.882;37.654;2023-02-12T00:43:38;98176.13;;;-3.01;82.73
50672;BME280;46021;55.882;37.654;2023-02-12T00:46:05;98197.41;;;-3.19;81.56
50672;BME280;46021;55.882;37.654;2023-02-12T00:48:33;98204.19;;;-3.20;82.18
50672;BME280;46021;55.882;37.654;2023-02-12T00:51:00;98211.81;;;-3.20;81.76
50672;BME280;46021;55.882;37.654;2023-02-12T00:53:29;98216.94;;;-3.26;82.37
50672;BME280;46021;55.882;37.654;2023-02-12T00:55:56;98216.91;;;-3.29;81.33
50672;BME280;46021;55.882;37.654;2023-02-12T00:58:24;98225.44;;;-3.27;81.74
50672;BME280;46021;55.882;37.654;2023-02-12T01:00:52;98222.03;;;-3.32;81.68
50672;BME280;46021;55.882;37.654;2023-02-12T01:03:19;98240.72;;;-3.27;80.59
50672;BME280;46021;55.882;37.654;2023-02-12T01:05:47;98245.81;;;-3.36;80.83
50672;BME280;46021;55.882;37.654;2023-02-12T01:08:15;98242.41;;;-3.35;81.86
50672;BME280;46021;55.882;37.654;2023-02-12T01:10:43;98250.91;;;-3.47;81.49
50672;BME280;46021;55.882;37.654;2023-02-12T01:13:11;98278.09;;;-3.38;80.74
50672;BME280;46021;55.882;37.654;2023-02-12T01:15:38;98275.53;;;-3.49;81.43
50672;BME280;46021;55.882;37.654;2023-02-12T01:18:06;98281.47;;;-3.55;80.70
50672;BME280;46021;55.882;37.654;2023-02-12T01:20:33;98299.28;;;-3.53;81.19
50672;BME280;46021;55.882;37.654;2023-02-12T01:23:00;98300.09;;;-3.62;80.50
50672;BME280;46021;55.882;37.654;2023-02-12T01:25:27;98314.56;;;-3.55;81.33
50672;BME280;46021;55.882;37.654;2023-02-12T01:27:56;98317.94;;;-3.62;80.62
50672;BME280;46021;55.882;37.654;2023-02-12T01:30:23;98316.22;;;-3.67;82.13
50672;BME280;46021;55.882;37.654;2023-02-12T01:32:50;98334.03;;;-3.72;81.33
50672;BME280;46021;55.882;37.654;2023-02-12T01:35:17;98343.38;;;-3.69;81.19
50672;BME280;46021;55.882;37.654;2023-02-12T01:37:44;98337.44;;;-3.70;81.90
50672;BME280;46021;55.882;37.654;2023-02-12T01:40:14;98340.78;;;-3.79;81.49
50672;BME280;46021;55.882;37.654;2023-02-12T01:42:41;98338.25;;;-3.80;80.41
50672;BME280;46021;55.882;37.654;2023-02-12T01:48:21;98369.59;;;-3.94;81.25
50672;BME280;46021;55.882;37.654;2023-02-12T01:50:50;98380.63;;;-3.92;81.89
50672;BME280;46021;55.882;37.654;2023-02-12T01:53:19;98392.47;;;-4.00;81.25
50672;BME280;46021;55.882;37.654;2023-02-12T01:55:50;98395.00;;;-4.04;81.63
50672;BME280;46021;55.882;37.654;2023-02-12T01:58:19;98399.16;;;-4.13;81.73
50672;BME280;46021;55.882;37.654;2023-02-12T02:00:47;98402.63;;;-4.06;80.91
50672;BME280;46021;55.882;37.654;2023-02-12T02:03:14;98411.06;;;-4.13;81.76
50672;BME280;46021;55.882;37.654;2023-02-12T02:05:46;98419.56;;;-4.08;82.04
50672;BME280;46021;55.882;37.654;2023-02-12T02:08:15;98415.34;;;-4.06;80.69
50672;BME280;46021;55.882;37.654;2023-02-12T02:10:42;98420.34;;;-4.18;80.95
50672;BME280;46021;55.882;37.654;2023-02-12T02:13:10;98433.97;;;-4.10;80.50
50672;BME280;46021;55.882;37.654;2023-02-12T02:15:59;98430.53;;;-4.15;81.21
50672;BME280;46021;55.882;37.654;2023-02-12T02:18:34;98441.63;;;-4.10;81.33
50672;BME280;46021;55.882;37.654;2023-02-12T02:24:45;98460.19;;;-4.23;81.64
50672;BME280;46021;55.882;37.654;2023-02-12T02:27:24;98452.56;;;-4.20;81.24
50672;BME280;46021;55.882;37.654;2023-02-12T02:30:13;98472.00;;;-4.25;81.30
50672;BME280;46021;55.882;37.654;2023-02-12T02:32:51;98479.69;;;-4.21;81.56
50672;BME280;46021;55.882;37.654;2023-02-12T02:35:27;98508.53;;;-4.20;80.44
50672;BME280;46021;55.882;37.654;2023-02-12T02:38:04;98501.72;;;-4.24;81.33
50672;BME280;46021;55.882;37.654;2023-02-12T02:40:38;98521.94;;;-4.40;82.01
50672;BME280;46021;55.882;37.654;2023-02-12T02:43:14;98518.59;;;-4.31;82.39
50672;BME280;46021;55.882;37.654;2023-02-12T02:45:47;98521.16;;;-4.29;82.02
50672;BME280;46021;55.882;37.654;2023-02-12T02:48:18;98545.66;;;-4.41;81.03
50672;BME280;46021;55.882;37.654;2023-02-12T02:50:51;98527.88;;;-4.39;81.39
50672;BME280;46021;55.882;37.654;2023-02-12T02:53:26;98537.25;;;-4.34;81.30
50672;BME280;46021;55.882;37.654;2023-02-12T02:55:57;98543.16;;;-4.36;81.70
50672;BME280;46021;55.882;37.654;2023-02-12T02:58:28;98555.03;;;-4.35;80.63
50672;BME280;46021;55.882;37.654;2023-02-12T03:01:01;98566.88;;;-4.39;80.57
50672;BME280;46021;55.882;37.654;2023-02-12T03:03:35;98567.75;;;-4.37;80.75
50672;BME280;46021;55.882;37.654;2023-02-12T03:06:07;98577.03;;;-4.39;80.67
50672;BME280;46021;55.882;37.654;2023-02-12T03:08:39;98577.84;;;-4.43;81.14
50672;BME280;46021;55.882;37.654;2023-02-12T03:11:13;98605.00;;;-4.42;80.96
50672;BME280;46021;55.882;37.654;2023-02-12T03:13:43;98596.56;;;-4.38;80.94
50672;BME280;46021;55.882;37.654;2023-02-12T03:16:17;98597.47;;;-4.31;80.96
50672;BME280;46021;55.882;37.654;2023-02-12T03:18:50;98614.41;;;-4.36;80.30
50672;BME280;46021;55.882;37.654;2023-02-12T03:21:25;98616.00;;;-4.46;80.54
50672;BME280;46021;55.882;37.654;2023-02-12T03:23:59;98611.72;;;-4.47;81.42
50672;BME280;46021;55.882;37.654;2023-02-12T03:26:37;98626.94;;;-4.53;81.62
50672;BME280;46021;55.882;37.654;2023-02-12T03:29:05;98640.47;;;-4.54;81.70
50672;BME280;46021;55.882;37.654;2023-02-12T03:31:39;98644.78;;;-4.48;81.07
50672;BME280;46021;55.882;37.654;2023-02-12T03:34:12;98637.16;;;-4.47;80.55
50672;BME280;46021;55.882;37.654;2023-02-12T03:36:47;98660.00;;;-4.52;81.73
50672;BME280;46021;55.882;37.654;2023-02-12T03:39:27;98655.69;;;-4.59;80.50
50672;BME280;46021;55.882;37.654;2023-02-12T03:42:01;98658.84;;;-4.77;81.03
50672;BME280;46021;55.882;37.654;2023-02-12T03:44:40;98669.00;;;-4.80;81.36
50672;BME280;46021;55.882;37.654;2023-02-12T03:47:17;98682.63;;;-4.72;81.26
50672;BME280;46021;55.882;37.654;2023-02-12T03:49:50;98689.50;;;-4.66;80.62
50672;BME280;46021;55.882;37.654;2023-02-12T03:52:18;98681.81;;;-4.69;79.32
50672;BME280;46021;55.882;37.654;2023-02-12T03:54:46;98696.28;;;-4.66;80.06
50672;BME280;46021;55.882;37.654;2023-02-12T03:57:16;98679.28;;;-4.67;79.74
50672;BME280;46021;55.882;37.654;2023-02-12T03:59:45;98712.31;;;-4.69;80.07
50672;BME280;46021;55.882;37.654;2023-02-12T04:02:16;98711.56;;;-4.63;79.91
50672;BME280;46021;55.882;37.654;2023-02-12T04:04:45;98725.84;;;-4.72;79.50
50672;BME280;46021;55.882;37.654;2023-02-12T04:07:13;98727.53;;;-4.74;78.70
50672;BME280;46021;55.882;37.654;2023-02-12T04:09:40;98730.13;;;-4.71;79.02
50672;BME280;46021;55.882;37.654;2023-02-12T04:12:20;98737.69;;;-4.74;79.59
50672;BME280;46021;55.882;37.654;2023-02-12T04:14:55;98740.25;;;-4.74;78.59
50672;BME280;46021;55.882;37.654;2023-02-12T04:17:34;98713.75;;;-4.90;78.71
50672;BME280;46021;55.882;37.654;2023-02-12T04:20:09;98750.22;;;-4.86;78.23
50672;BME280;46021;55.882;37.654;2023-02-12T04:22:45;98768.94;;;-4.81;78.28
50672;BME280;46021;55.882;37.654;2023-02-12T04:25:21;98763.72;;;-4.90;77.81
50672;BME280;46021;55.882;37.654;2023-02-12T04:27:56;98757.94;;;-4.81;77.75
50672;BME280;46021;55.882;37.654;2023-02-12T04:30:30;98763.53;;;-5.02;77.44
50672;BME280;46021;55.882;37.654;2023-02-12T04:33:02;98787.47;;;-4.88;77.36
50672;BME280;46021;55.882;37.654;2023-02-12T04:35:32;98790.81;;;-4.92;77.28
50672;BME280;46021;55.882;37.654;2023-02-12T04:38:06;98802.56;;;-4.97;77.04
50672;BME280;46021;55.882;37.654;2023-02-12T04:40:37;98807.63;;;-5.00;77.01
50672;BME280;46021;55.882;37.654;2023-02-12T04:43:05;98817.78;;;-5.00;77.26
50672;BME280;46021;55.882;37.654;2023-02-12T04:45:33;98821.13;;;-5.03;77.11
50672;BME280;46021;55.882;37.654;2023-02-12T04:48:03;98825.28;;;-5.08;76.91
50672;BME280;46021;55.882;37.654;2023-02-12T04:50:37;98832.97;;;-5.03;77.25
50672;BME280;46021;55.882;37.654;2023-02-12T04:53:05;98830.41;;;-5.06;77.13
50672;BME280;46021;55.882;37.654;2023-02-12T04:55:32;98832.94;;;-5.06;77.24
50672;BME280;46021;55.882;37.654;2023-02-12T04:57:59;98857.50;;;-5.05;76.82
50672;BME280;46021;55.882;37.654;2023-02-12T05:00:27;98850.72;;;-5.05;76.42
50672;BME280;46021;55.882;37.654;2023-02-12T05:02:54;98855.81;;;-5.06;76.43
50672;BME280;46021;55.882;37.654;2023-02-12T05:05:23;98863.38;;;-5.10;75.64
50672;BME280;46021;55.882;37.654;2023-02-12T05:07:50;98860.91;;;-5.06;76.04
50672;BME280;46021;55.882;37.654;2023-02-12T05:10:17;98887.22;;;-5.01;76.15
50672;BME280;46021;55.882;37.654;2023-02-12T05:12:44;98896.47;;;-5.06;75.58
50672;BME280;46021;55.882;37.654;2023-02-12T05:15:11;98893.94;;;-5.06;76.19
50672;BME280;46021;55.882;37.654;2023-02-12T05:17:39;98905.59;;;-5.18;75.76
50672;BME280;46021;55.882;37.654;2023-02-12T05:20:07;98914.13;;;-5.13;76.04
50672;BME280;46021;55.882;37.654;2023-02-12T05:22:35;98916.63;;;-5.16;75.97
50672;BME280;46021;55.882;37.654;2023-02-12T05:25:03;98940.41;;;-5.11;76.20
50672;BME280;46021;55.882;37.654;2023-02-12T05:27:30;98937.94;;;-5.07;75.49
50672;BME280;46021;55.882;37.654;2023-02-12T05:29:57;98928.56;;;-5.12;75.71
50672;BME280;46021;55.882;37.654;2023-02-12T05:32:24;98939.66;;;-5.06;75.41
50672;BME280;46021;55.882;37.654;2023-02-12T05:34:51;98939.72;;;-5.03;75.39
50672;BME280;46021;55.882;37.654;2023-02-12T05:37:18;98958.38;;;-5.01;74.88
50672;BME280;46021;55.882;37.654;2023-02-12T05:39:49;98944.84;;;-5.00;74.49
50672;BME280;46021;55.882;37.654;2023-02-12T05:42:16;98969.38;;;-5.02;74.43
50672;BME280;46021;55.882;37.654;2023-02-12T05:44:43;98962.63;;;-5.02;74.51
50672;BME280;46021;55.882;37.654;2023-02-12T05:47:12;98987.19;;;-5.02;74.01
50672;BME280;46021;55.882;37.654;2023-02-12T05:49:40;98982.13;;;-4.99;74.17
50672;BME280;46021;55.882;37.654;2023-02-12T05:52:07;98984.63;;;-5.02;74.14
50672;BME280;46021;55.882;37.654;2023-02-12T05:54:34;98987.09;;;-5.05;74.51
50672;BME280;46021;55.882;37.654;2023-02-12T05:57:02;98993.16;;;-5.00;74.55
50672;BME280;46021;55.882;37.654;2023-02-12T05:59:29;98997.16;;;-5.12;74.62
50672;BME280;46021;55.882;37.654;2023-02-12T06:01:56;98993.78;;;-5.11;74.21
50672;BME280;46021;55.882;37.654;2023-02-12T06:04:25;99000.47;;;-5.14;75.08
50672;BME280;46021;55.882;37.654;2023-02-12T06:06:53;99013.19;;;-5.16;74.55
50672;BME280;46021;55.882;37.654;2023-02-12T06:09:21;99012.41;;;-5.12;74.48
50672;BME280;46021;55.882;37.654;2023-02-12T06:11:48;98996.97;;;-5.21;73.81
50672;BME280;46021;55.882;37.654;2023-02-12T06:14:18;99009.63;;;-5.22;73.88
50672;BME280;46021;55.882;37.654;2023-02-12T06:16:47;99030.78;;;-5.25;73.94
50672;BME280;46021;55.882;37.654;2023-02-12T06:19:15;99036.09;;;-5.13;74.09
50672;BME280;46021;55.882;37.654;2023-02-12T06:21:42;99036.91;;;-5.15;73.89
50672;BME280;46021;55.882;37.654;2023-02-12T06:24:10;99033.53;;;-5.13;73.83
50672;BME280;46021;55.882;37.654;2023-02-12T06:26:38;99050.41;;;-5.16;74.19
50672;BME280;46021;55.882;37.654;2023-02-12T06:29:05;99062.22;;;-5.18;73.38
50672;BME280;46021;55.882;37.654;2023-02-12T06:31:34;99072.50;;;-5.14;74.15
50672;BME280;46021;55.882;37.654;2023-02-12T06:34:04;99078.41;;;-5.15;73.53
50672;BME280;46021;55.882;37.654;2023-02-12T06:36:32;99094.44;;;-5.17;73.21
50672;BME280;46021;55.882;37.654;2023-02-12T06:39:00;99107.19;;;-5.16;72.87
50672;BME280;46021;55.882;37.654;2023-02-12T06:41:27;99122.47;;;-5.13;72.89
50672;BME280;46021;55.882;37.654;2023-02-12T06:43:54;99116.34;;;-5.22;72.92
50672;BME280;46021;55.882;37.654;2023-02-12T06:46:22;99125.56;;;-5.26;72.99
50672;BME280;46021;55.882;37.654;2023-02-12T06:48:53;99126.63;;;-5.18;73.11
50672;BME280;46021;55.882;37.654;2023-02-12T06:51:21;99135.25;;;-5.10;73.32
50672;BME280;46021;55.882;37.654;2023-02-12T06:53:49;99134.41;;;-5.10;72.66
50672;BME280;46021;55.882;37.654;2023-02-12T06:56:16;99150.59;;;-5.05;72.26
50672;BME280;46021;55.882;37.654;2023-02-12T06:58:46;99141.78;;;-5.21;72.38
50672;BME280;46021;55.882;37.654;2023-02-12T07:01:15;99116.84;;;-5.37;72.67
50672;BME280;46021;55.882;37.654;2023-02-12T07:03:43;99149.06;;;-5.36;72.55
50672;BME280;46021;55.882;37.654;2023-02-12T07:06:14;99157.78;;;-5.25;72.88
50672;BME280;46021;55.882;37.654;2023-02-12T07:08:41;99157.84;;;-5.22;72.03
50672;BME280;46021;55.882;37.654;2023-02-12T07:11:08;99155.56;;;-5.11;72.16
50672;BME280;46021;55.882;37.654;2023-02-12T07:13:35;99184.66;;;-4.98;72.02
50672;BME280;46021;55.882;37.654;2023-02-12T07:16:03;99171.94;;;-4.98;71.49
50672;BME280;46021;55.882;37.654;2023-02-12T07:18:32;99174.41;;;-5.01;71.28
50672;BME280;46021;55.882;37.654;2023-02-12T07:20:59;99179.44;;;-5.04;71.01
50672;BME280;46021;55.882;37.654;2023-02-12T07:23:27;99196.47;;;-5.00;70.90
50672;BME280;46021;55.882;37.654;2023-02-12T07:25:55;99189.53;;;-5.07;70.26
50672;BME280;46021;55.882;37.654;2023-02-12T07:28:22;99190.41;;;-5.05;70.69
50672;BME280;46021;55.882;37.654;2023-02-12T07:30:49;99195.75;;;-4.95;70.47
50672;BME280;46021;55.882;37.654;2023-02-12T07:33:18;99171.31;;;-4.88;70.89
50672;BME280;46021;55.882;37.654;2023-02-12T07:35:45;99191.81;;;-4.80;70.45
50672;BME280;46021;55.882;37.654;2023-02-12T07:38:12;99203.78;;;-4.75;69.54
50672;BME280;46021;55.882;37.654;2023-02-12T07:40:41;99202.97;;;-4.74;69.02
50672;BME280;46021;55.882;37.654;2023-02-12T07:43:08;99197.16;;;-4.68;68.32
50672;BME280;46021;55.882;37.654;2023-02-12T07:45:35;99212.72;;;-4.54;69.85
50672;BME280;46021;55.882;37.654;2023-02-12T07:48:02;99229.34;;;-4.70;68.45
50672;BME280;46021;55.882;37.654;2023-02-12T07:50:29;99225.22;;;-4.65;68.94
50672;BME280;46021;55.882;37.654;2023-02-12T07:52:56;99239.63;;;-4.64;67.57
50672;BME280;46021;55.882;37.654;2023-02-12T07:55:24;99247.25;;;-4.64;67.85
50672;BME280;46021;55.882;37.654;2023-02-12T07:57:52;99245.56;;;-4.63;67.93
50672;BME280;46021;55.882;37.654;2023-02-12T08:00:20;99242.97;;;-4.66;68.38
50672;BME280;46021;55.882;37.654;2023-02-12T08:02:50;99261.59;;;-4.67;68.56
50672;BME280;46021;55.882;37.654;2023-02-12T08:05:19;99267.44;;;-4.72;68.15
50672;BME280;46021;55.882;37.654;2023-02-12T08:07:46;99257.78;;;-4.86;67.23
50672;BME280;46021;55.882;37.654;2023-02-12T08:10:13;99268.75;;;-4.89;67.98
50672;BME280;46021;55.882;37.654;2023-02-12T08:12:40;99268.44;;;-5.01;67.34
50672;BME280;46021;55.882;37.654;2023-02-12T08:15:09;99279.97;;;-4.79;67.55
50672;BME280;46021;55.882;37.654;2023-02-12T08:17:36;99267.22;;;-4.81;67.90
50672;BME280;46021;55.882;37.654;2023-02-12T08:20:04;99281.84;;;-4.72;67.24
50672;BME280;46021;55.882;37.654;2023-02-12T08:22:31;99282.66;;;-4.73;67.40
50672;BME280;46021;55.882;37.654;2023-02-12T08:24:58;99288.06;;;-4.59;68.49
50672;BME280;46021;55.882;37.654;2023-02-12T08:27:25;99284.44;;;-4.71;67.03
50672;BME280;46021;55.882;37.654;2023-02-12T08:29:52;99286.47;;;-4.54;67.50
50672;BME280;46021;55.882;37.654;2023-02-12T08:32:20;99297.38;;;-4.60;67.28
50672;BME280;46021;55.882;37.654;2023-02-12T08:34:47;99310.47;;;-4.43;67.85
50672;BME280;46021;55.882;37.654;2023-02-12T08:37:15;99305.72;;;-4.27;67.10
50672;BME280;46021;55.882;37.654;2023-02-12T08:39:42;99307.44;;;-4.26;66.51
50672;BME280;46021;55.882;37.654;2023-02-12T08:42:09;99317.69;;;-4.23;65.76
50672;BME280;46021;55.882;37.654;2023-02-12T08:44:36;99313.50;;;-4.20;66.36
50672;BME280;46021;55.882;37.654;2023-02-12T08:47:05;99310.31;;;-4.11;65.16
50672;BME280;46021;55.882;37.654;2023-02-12T08:49:33;99327.66;;;-3.93;65.30
50672;BME280;46021;55.882;37.654;2023-02-12T08:52:00;99337.66;;;-4.01;64.85
50672;BME280;46021;55.882;37.654;2023-02-12T08:54:29;99328.28;;;-4.03;65.32
50672;BME280;46021;55.882;37.654;2023-02-12T08:56:58;99338.94;;;-4.20;64.22
50672;BME280;46021;55.882;37.654;2023-02-12T08:59:26;99330.50;;;-4.19;65.38
50672;BME280;46021;55.882;37.654;2023-02-12T09:01:53;99334.78;;;-4.16;64.83
50672;BME280;46021;55.882;37.654;2023-02-12T09:04:22;99338.88;;;-3.83;64.83
50672;BME280;46021;55.882;37.654;2023-02-12T09:06:51;99341.78;;;-4.07;64.85
50672;BME280;46021;55.882;37.654;2023-02-12T09:09:18;99350.25;;;-4.07;64.75
50672;BME280;46021;55.882;37.654;2023-02-12T09:11:46;99353.97;;;-3.93;64.53
50672;BME280;46021;55.882;37.654;2023-02-12T09:14:14;99357.91;;;-4.07;62.87
50672;BME280;46021;55.882;37.654;2023-02-12T09:16:41;99369.75;;;-4.09;62.66
50672;BME280;46021;55.882;37.654;2023-02-12T09:19:11;99374.06;;;-4.05;63.06
50672;BME280;46021;55.882;37.654;2023-02-12T09:21:38;99346.00;;;-4.08;63.92
50672;BME280;46021;55.882;37.654;2023-02-12T09:24:08;99364.03;;;-3.97;62.58
50672;BME280;46021;55.882;37.654;2023-02-12T09:26:35;99380.66;;;-4.15;61.15
50672;BME280;46021;55.882;37.654;2023-02-12T09:29:03;99389.34;;;-4.05;62.41
50672;BME280;46021;55.882;37.654;2023-02-12T09:31:30;99375.84;;;-4.01;60.92
50672;BME280;46021;55.882;37.654;2023-02-12T09:33:59;99374.78;;;-3.71;62.30
50672;BME280;46021;55.882;37.654;2023-02-12T09:36:27;99388.97;;;-2.96;61.05
50672;BME280;46021;55.882;37.654;2023-02-12T09:38:55;99392.19;;;-2.56;59.94
50672;BME280;46021;55.882;37.654;2023-02-12T09:41:40;99375.31;;;-2.46;59.07
50672;BME280;46021;55.882;37.654;2023-02-12T09:44:16;99395.16;;;-1.67;59.58
50672;BME280;46021;55.882;37.654;2023-02-12T09:46:49;99396.53;;;-1.25;56.69
50672;BME280;46021;55.882;37.654;2023-02-12T09:49:25;99392.91;;;-1.42;55.72
50672;BME280;46021;55.882;37.654;2023-02-12T09:51:55;99385.34;;;-1.33;55.64
50672;BME280;46021;55.882;37.654;2023-02-12T09:54:25;99405.81;;;-1.33;55.73
50672;BME280;46021;55.882;37.654;2023-02-12T09:56:58;99405.31;;;-1.01;55.39
50672;BME280;46021;55.882;37.654;2023-02-12T09:59:32;99401.72;;;-1.17;54.46
50672;BME280;46021;55.882;37.654;2023-02-12T10:02:05;99417.44;;;-1.58;53.48
50672;BME280;46021;55.882;37.654;2023-02-12T10:04:32;99410.63;;;-1.58;55.63
50672;BME280;46021;55.882;37.654;2023-02-12T10:07:03;99390.28;;;-1.48;54.81
50672;BME280;46021;55.882;37.654;2023-02-12T10:09:44;99409.53;;;-1.03;56.61
50672;BME280;46021;55.882;37.654;2023-02-12T10:12:20;99417.22;;;-1.03;54.58
50672;BME280;46021;55.882;37.654;2023-02-12T10:15:12;99422.38;;;0.03;58.10
50672;BME280;46021;55.882;37.654;2023-02-12T10:17:43;99414.13;;;0.56;53.16
50672;BME280;46021;55.882;37.654;2023-02-12T10:20:35;99435.31;;;0.19;52.19
50672;BME280;46021;55.882;37.654;2023-02-12T10:23:28;99418.72;;;-0.32;53.63
50672;BME280;46021;55.882;37.654;2023-02-12T10:26:03;99435.47;;;-0.69;54.64
50672;BME280;46021;55.882;37.654;2023-02-12T10:28:40;99440.91;;;-0.35;54.30
50672;BME280;46021;55.882;37.654;2023-02-12T10:31:14;99442.41;;;-0.57;54.11
50672;BME280;46021;55.882;37.654;2023-02-12T10:33:44;99443.63;;;-0.14;54.75
50672;BME280;46021;55.882;37.654;2023-02-12T10:36:18;99448.06;;;0.15;53.59
50672;BME280;46021;55.882;37.654;2023-02-12T10:38:56;99453.41;;;0.46;53.31
50672;BME280;46021;55.882;37.654;2023-02-12T10:41:27;99449.91;;;0.31;50.92
50672;BME280;46021;55.882;37.654;2023-02-12T10:43:56;99459.78;;;-0.24;51.91
50672;BME280;46021;55.882;37.654;2023-02-12T10:46:24;99460.19;;;-0.73;51.94
50672;BME280;46021;55.882;37.654;2023-02-12T10:48:52;99472.50;;;-1.14;52.05
50672;BME280;46021;55.882;37.654;2023-02-12T10:51:37;99475.03;;;-1.16;52.98
50672;BME280;46021;55.882;37.654;2023-02-12T10:54:33;99471.84;;;-1.00;52.19
50672;BME280;46021;55.882;37.654;2023-02-12T10:57:08;99463.38;;;-0.94;52.22
50672;BME280;46021;55.882;37.654;2023-02-12T10:59:38;99476.38;;;-1.46;52.78
50672;BME280;46021;55.882;37.654;2023-02-12T11:02:21;99474.63;;;-1.50;52.86
50672;BME280;46021;55.882;37.654;2023-02-12T11:04:48;99481.81;;;-0.40;55.83
50672;BME280;46021;55.882;37.654;2023-02-12T11:07:16;99496.28;;;0.71;54.00
50672;BME280;46021;55.882;37.654;2023-02-12T11:09:45;99494.75;;;1.23;50.35
50672;BME280;46021;55.882;37.654;2023-02-12T11:12:19;99491.41;;;1.54;48.73
50672;BME280;46021;55.882;37.654;2023-02-12T11:14:51;99501.50;;;0.90;49.72
50672;BME280;46021;55.882;37.654;2023-02-12T11:17:23;99498.19;;;1.25;49.43
50672;BME280;46021;55.882;37.654;2023-02-12T11:20:07;99500.00;;;1.83;49.81
50672;BME280;46021;55.882;37.654;2023-02-12T11:22:49;99503.44;;;1.86;49.07
50672;BME280;46021;55.882;37.654;2023-02-12T11:25:17;99515.34;;;1.33;49.52
50672;BME280;46021;55.882;37.654;2023-02-12T11:27:44;99518.53;;;0.75;48.18
50672;BME280;46021;55.882;37.654;2023-02-12T11:30:26;99535.03;;;-0.10;50.03
50672;BME280;46021;55.882;37.654;2023-02-12T11:32:53;99533.59;;;-0.67;51.07
50672;BME280;46021;55.882;37.654;2023-02-12T11:35:21;99542.53;;;-1.06;51.87
50672;BME280;46021;55.882;37.654;2023-02-12T11:37:54;99547.44;;;-1.22;53.82
50672;BME280;46021;55.882;37.654;2023-02-12T11:40:24;99550.53;;;-1.44;54.48
50672;BME280;46021;55.882;37.654;2023-02-12T11:42:55;99547.81;;;-0.94;55.96
50672;BME280;46021;55.882;37.654;2023-02-12T11:45:29;99540.66;;;0.58;56.11
50672;BME280;46021;55.882;37.654;2023-02-12T11:47:57;99539.31;;;1.43;51.58
50672;BME280;46021;55.882;37.654;2023-02-12T11:50:27;99542.50;;;0.81;48.87
50672;BME280;46021;55.882;37.654;2023-02-12T11:52:58;99561.50;;;1.23;53.12
50672;BME280;46021;55.882;37.654;2023-02-12T11:55:28;99550.59;;;2.14;51.78
50672;BME280;46021;55.882;37.654;2023-02-12T11:58:02;99564.94;;;3.28;48.87
50672;BME280;46021;55.882;37.654;2023-02-12T12:00:33;99544.78;;;3.96;47.71
50672;BME280;46021;55.882;37.654;2023-02-12T12:03:10;99556.28;;;4.62;44.67
50672;BME280;46021;55.882;37.654;2023-02-12T12:05:43;99561.38;;;5.45;46.40
50672;BME280;46021;55.882;37.654;2023-02-12T12:08:16;99565.00;;;5.97;45.18
50672;BME280;46021;55.882;37.654;2023-02-12T12:10:48;99568.44;;;5.99;43.80
50672;BME280;46021;55.882;37.654;2023-02-12T12:13:20;99577.59;;;5.57;44.06
50672;BME280;46021;55.882;37.654;2023-02-12T12:15:58;99578.91;;;5.22;43.05
50672;BME280;46021;55.882;37.654;2023-02-12T12:18:47;99601.09;;;2.91;43.47
50672;BME280;46021;55.882;37.654;2023-02-12T12:21:38;99593.94;;;0.99;46.73
50672;BME280;46021;55.882;37.654;2023-02-12T12:24:12;99599.34;;;0.18;47.33
50672;BME280;46021;55.882;37.654;2023-02-12T12:26:41;99618.31;;;-0.46;50.45
50672;BME280;46021;55.882;37.654;2023-02-12T12:29:16;99618.75;;;-0.82;51.26
50672;BME280;46021;55.882;37.654;2023-02-12T12:31:49;99628.06;;;-0.89;51.49
50672;BME280;46021;55.882;37.654;2023-02-12T12:34:21;99638.72;;;-1.18;51.86
50672;BME280;46021;55.882;37.654;2023-02-12T12:37:12;99639.41;;;-1.28;51.83
50672;BME280;46021;55.882;37.654;2023-02-12T12:39:47;99634.78;;;-2.02;53.28
50672;BME280;46021;55.882;37.654;2023-02-12T12:42:46;99644.72;;;-2.60;54.61
50672;BME280;46021;55.882;37.654;2023-02-12T12:45:27;99649.66;;;-2.69;54.25
50672;BME280;46021;55.882;37.654;2023-02-12T12:48:07;99644.19;;;-2.86;55.21
50672;BME280;46021;55.882;37.654;2023-02-12T12:50:53;99654.81;;;-2.66;54.17
50672;BME280;46021;55.882;37.654;2023-02-12T12:53:35;99648.94;;;-2.62;55.89
50672;BME280;46021;55.882;37.654;2023-02-12T12:56:18;99660.44;;;-2.42;54.76
50672;BME280;46021;55.882;37.654;2023-02-12T12:58:59;99660.81;;;-2.64;54.33
50672;BME280;46021;55.882;37.654;2023-02-12T13:04:53;99685.69;;;-2.94;55.63
50672;BME280;46021;55.882;37.654;2023-02-12T13:07:41;99691.41;;;-3.04;54.23
50672;BME280;46021;55.882;37.654;2023-02-12T13:10:25;99700.44;;;-3.17;55.67
50672;BME280;46021;55.882;37.654;2023-02-12T13:13:03;99703.75;;;-3.56;56.38
50672;BME280;46021;55.882;37.654;2023-02-12T13:15:36;99707.56;;;-3.73;56.43
50672;BME280;46021;55.882;37.654;2023-02-12T13:18:20;99717.09;;;-3.98;57.03
50672;BME280;46021;55.882;37.654;2023-02-12T13:20:58;99723.53;;;-4.11;57.65